createdAt,value
2022-12-19T00:01:37.532Z,-3.96
2022-12-19T00:04:11.434Z,-4.01
2022-12-19T00:06:43.932Z,-3.96
2022-12-19T00:09:12.375Z,-3.91
2022-12-19T00:11:39.828Z,-4.80
2022-12-19T00:14:07.749Z,-3.85
2022-12-19T00:16:34.565Z,-5.04
2022-12-19T00:19:02.389Z,-4.96
2022-12-19T00:21:34.657Z,-3.89
2022-12-19T00:24:03.538Z,-4.23
2022-12-19T00:26:35.945Z,-3.95
2022-12-19T00:29:11.125Z,-4.75
2022-12-19T00:31:41.027Z,-4.71
2022-12-19T00:34:08.945Z,-4.15
2022-12-19T00:36:35.774Z,-3.88
2022-12-19T00:39:07.755Z,-3.98
2022-12-19T00:41:36.809Z,-3.84
2022-12-19T00:44:07.077Z,-3.88
2022-12-19T00:46:35.120Z,-3.89
2022-12-19T00:49:02.577Z,-4.36
2022-12-19T00:51:31.976Z,-3.94
2022-12-19T00:53:59.558Z,-4.82
2022-12-19T00:56:29.216Z,-3.95
2022-12-19T00:58:57.068Z,-3.84
2022-12-19T01:01:31.224Z,-4.43
2022-12-19T01:06:46.348Z,-4.04
2022-12-19T01:09:14.308Z,-4.52
2022-12-19T01:11:59.547Z,-4.63
2022-12-19T01:14:26.406Z,-4.67
2022-12-19T01:16:53.437Z,-3.84
2022-12-19T01:19:21.025Z,-4.50
2022-12-19T01:21:47.760Z,-3.98
2022-12-19T01:24:18.373Z,-3.72
2022-12-19T01:26:46.602Z,-3.72
2022-12-19T01:29:13.347Z,-4.46
2022-12-19T01:31:40.228Z,-4.57
2022-12-19T01:34:07.353Z,-4.59
2022-12-19T01:36:38.603Z,-4.50
2022-12-19T01:39:07.557Z,-3.77
2022-12-19T01:41:35.355Z,-4.18
2022-12-19T01:44:06.038Z,-3.74
2022-12-19T01:46:40.259Z,-4.26
2022-12-19T01:49:15.005Z,-3.59
2022-12-19T01:51:47.266Z,-3.68
2022-12-19T01:54:22.148Z,-4.21
2022-12-19T01:56:52.221Z,-3.85
2022-12-19T01:59:44.263Z,-4.50
2022-12-19T02:02:21.860Z,-4.45
2022-12-19T02:04:48.683Z,-3.76
2022-12-19T02:07:18.649Z,-3.74
2022-12-19T02:09:47.069Z,-4.51
2022-12-19T02:12:14.878Z,-3.79
2022-12-19T02:14:42.324Z,-3.75
2022-12-19T02:17:25.100Z,-3.52
2022-12-19T02:20:04.049Z,-3.52
2022-12-19T02:22:43.040Z,-3.40
2022-12-19T02:25:28.566Z,-3.45
2022-12-19T02:28:21.966Z,-3.36
2022-12-19T02:31:17.358Z,-3.45
2022-12-19T02:33:56.378Z,-3.39
2022-12-19T02:36:55.658Z,-3.95
2022-12-19T02:39:34.441Z,-3.38
2022-12-19T02:42:04.484Z,-3.39
2022-12-19T02:44:45.352Z,-4.21
2022-12-19T02:47:14.267Z,-3.40
2022-12-19T02:49:41.072Z,-4.13
2022-12-19T02:52:20.031Z,-3.36
2022-12-19T02:54:49.739Z,-4.46
2022-12-19T02:57:31.580Z,-3.32
2022-12-19T03:00:27.752Z,-4.60
2022-12-19T03:03:19.081Z,-3.51
2022-12-19T03:06:11.795Z,-3.78
2022-12-19T03:08:45.107Z,-3.34
2022-12-19T03:11:14.936Z,-3.62
2022-12-19T03:13:44.686Z,-3.30
2022-12-19T03:16:12.685Z,-4.42
2022-12-19T03:18:40.549Z,-3.85
2022-12-19T03:21:41.630Z,-4.23
2022-12-19T03:24:11.714Z,-3.88
2022-12-19T03:26:45.740Z,-4.10
2022-12-19T03:29:19.130Z,-3.07
2022-12-19T03:31:47.287Z,-4.09
2022-12-19T03:35:00.723Z,-3.39
2022-12-19T03:37:32.152Z,-3.22
2022-12-19T03:40:03.323Z,-3.72
2022-12-19T03:42:52.276Z,-4.02
2022-12-19T03:45:31.446Z,-3.73
2022-12-19T03:48:04.162Z,-3.12
2022-12-19T03:50:40.307Z,-3.14
2022-12-19T03:53:32.092Z,-3.65
2022-12-19T03:56:11.369Z,-3.21
2022-12-19T03:58:44.442Z,-3.46
2022-12-19T04:01:11.687Z,-3.87
2022-12-19T04:03:38.543Z,-4.08
2022-12-19T04:06:06.438Z,-3.03
2022-12-19T04:08:35.646Z,-3.20
2022-12-19T04:11:09.230Z,-4.04
2022-12-19T04:13:44.940Z,-3.70
2022-12-19T04:16:21.554Z,-3.06
2022-12-19T04:18:56.771Z,-3.95
2022-12-19T04:21:35.521Z,-3.09
2022-12-19T04:31:24.031Z,-3.62
2022-12-19T04:33:50.900Z,-3.19
2022-12-19T04:36:17.894Z,-3.95
2022-12-19T04:38:44.973Z,-3.21
2022-12-19T04:41:13.120Z,-3.11
2022-12-19T04:43:39.798Z,-3.03
2022-12-19T04:46:06.927Z,-4.15
2022-12-19T04:48:36.298Z,-3.44
2022-12-19T04:51:03.370Z,-3.52
2022-12-19T04:53:30.503Z,-3.20
2022-12-19T04:56:04.911Z,-2.92
2022-12-19T04:58:32.070Z,-3.01
2022-12-19T05:01:03.300Z,-3.13
2022-12-19T05:03:30.426Z,-2.98
2022-12-19T05:06:10.729Z,-2.97
2022-12-19T05:08:39.186Z,-2.88
2022-12-19T05:11:19.017Z,-3.77
2022-12-19T05:13:46.560Z,-2.91
2022-12-19T05:16:13.611Z,-3.99
2022-12-19T05:18:40.760Z,-3.03
2022-12-19T05:21:08.307Z,-3.44
2022-12-19T05:23:35.107Z,-2.89
2022-12-19T05:26:04.719Z,-3.53
2022-12-19T05:28:32.609Z,-3.71
2022-12-19T05:31:08.236Z,-3.25
2022-12-19T05:33:35.875Z,-2.98
2022-12-19T05:36:03.736Z,-2.74
2022-12-19T05:38:31.038Z,-3.61
2022-12-19T05:40:58.047Z,-3.07
2022-12-19T05:43:24.878Z,-2.80
2022-12-19T05:45:51.715Z,-4.01
2022-12-19T05:48:18.467Z,-3.07
2022-12-19T05:50:50.357Z,-2.89
2022-12-19T05:53:20.687Z,-3.85
2022-12-19T05:55:51.485Z,-3.76
2022-12-19T05:58:19.596Z,-3.40
2022-12-19T06:00:46.332Z,-2.90
2022-12-19T06:03:13.173Z,-2.65
2022-12-19T06:05:40.085Z,-3.42
2022-12-19T06:08:06.942Z,-3.58
2022-12-19T06:10:34.319Z,-2.93
2022-12-19T06:13:01.364Z,-2.95
2022-12-19T06:15:28.874Z,-3.00
2022-12-19T06:17:56.746Z,-3.43
2022-12-19T06:20:25.061Z,-2.95
2022-12-19T06:23:01.706Z,-2.85
2022-12-19T06:25:29.156Z,-3.02
2022-12-19T06:27:55.891Z,-3.02
2022-12-19T06:30:22.827Z,-3.43
2022-12-19T06:32:49.642Z,-3.85
2022-12-19T06:35:16.563Z,-2.75
2022-12-19T06:37:43.411Z,-3.09
2022-12-19T06:40:30.616Z,-3.65
2022-12-19T06:42:57.500Z,-3.20
2022-12-19T06:45:27.675Z,-2.89
2022-12-19T06:47:56.864Z,-2.95
2022-12-19T06:50:24.480Z,-3.52
2022-12-19T06:52:51.623Z,-3.53
2022-12-19T06:55:18.970Z,-2.91
2022-12-19T06:57:46.629Z,-3.27
2022-12-19T07:00:17.294Z,-2.96
2022-12-19T07:02:49.254Z,-2.72
2022-12-19T07:05:16.250Z,-2.52
2022-12-19T07:07:43.250Z,-2.57
2022-12-19T07:10:10.514Z,-2.60
2022-12-19T07:12:37.491Z,-2.51
2022-12-19T07:15:05.884Z,-2.81
2022-12-19T07:17:34.199Z,-2.64
2022-12-19T07:20:01.030Z,-2.46
2022-12-19T07:22:33.393Z,-2.82
2022-12-19T07:25:02.679Z,-2.47
2022-12-19T07:27:35.427Z,-3.08
2022-12-19T07:30:04.067Z,-2.51
2022-12-19T07:32:31.039Z,-2.68
2022-12-19T07:34:57.901Z,-2.40
2022-12-19T07:37:24.666Z,-2.78
2022-12-19T07:39:53.163Z,-3.29
2022-12-19T07:42:20.469Z,-2.67
2022-12-19T07:44:47.217Z,-3.14
2022-12-19T07:47:14.047Z,-2.82
2022-12-19T07:49:40.836Z,-3.40
2022-12-19T07:52:08.658Z,-3.09
2022-12-19T07:54:39.748Z,-2.31
2022-12-19T07:57:08.051Z,-3.26
2022-12-19T07:59:38.926Z,-2.08
2022-12-19T08:02:06.728Z,-2.12
2022-12-19T08:04:35.043Z,-2.85
2022-12-19T08:07:02.659Z,-2.49
2022-12-19T08:09:29.713Z,-2.23
2022-12-19T08:11:56.788Z,-3.26
2022-12-19T08:14:23.655Z,-2.03
2022-12-19T08:17:19.400Z,-2.34
2022-12-19T08:19:37.175Z,-2.42
2022-12-19T08:22:04.078Z,-2.07
2022-12-19T08:24:32.570Z,-1.82
2022-12-19T08:26:59.459Z,-1.89
2022-12-19T08:29:26.612Z,-1.44
2022-12-19T08:32:06.957Z,-1.89
2022-12-19T08:34:34.010Z,-1.95
2022-12-19T08:37:00.972Z,-1.87
2022-12-19T08:39:28.564Z,-2.24
2022-12-19T08:41:55.259Z,-1.69
2022-12-19T08:44:22.118Z,-2.49
2022-12-19T08:46:50.514Z,-2.18
2022-12-19T08:49:24.358Z,-1.76
2022-12-19T08:51:51.417Z,-2.60
2022-12-19T08:54:18.375Z,-2.16
2022-12-19T08:56:46.361Z,-1.70
2022-12-19T08:59:18.685Z,-2.53
2022-12-19T09:01:52.511Z,-2.73
2022-12-19T09:05:21.294Z,-2.14
2022-12-19T09:07:06.685Z,-2.13
2022-12-19T09:09:34.017Z,-2.30
2022-12-19T09:12:00.830Z,-1.89
2022-12-19T09:14:27.718Z,-1.44
2022-12-19T09:17:00.987Z,-2.10
2022-12-19T09:19:33.165Z,-2.64
2022-12-19T09:22:00.187Z,-2.18
2022-12-19T09:24:27.070Z,-2.03
2022-12-19T09:26:54.128Z,-1.41
2022-12-19T09:29:22.017Z,-2.08
2022-12-19T09:31:55.513Z,-1.42
2022-12-19T09:34:24.012Z,-2.05
2022-12-19T09:36:52.147Z,-1.62
2022-12-19T09:40:27.468Z,-1.29
2022-12-19T09:42:57.022Z,-1.03
2022-12-19T09:45:48.233Z,-1.11
2022-12-19T09:48:24.060Z,-1.77
2022-12-19T09:51:10.248Z,-1.17
2022-12-19T09:53:59.940Z,-1.14
2022-12-19T09:56:34.108Z,-1.24
2022-12-19T09:59:41.117Z,-1.61
2022-12-19T10:02:44.544Z,-1.70
2022-12-19T10:06:35.411Z,-1.13
2022-12-19T10:08:22.287Z,-1.23
2022-12-19T10:12:36.465Z,-1.20
2022-12-19T10:14:16.188Z,-1.65
2022-12-19T10:17:24.547Z,-0.80
2022-12-19T10:20:11.307Z,-0.83
2022-12-19T10:22:59.715Z,-0.79
2022-12-19T10:25:39.435Z,-0.79
2022-12-19T10:28:39.540Z,-0.76
2022-12-19T10:31:21.634Z,-1.43
2022-12-19T10:34:05.767Z,-0.75
2022-12-19T10:37:12.890Z,-0.86
2022-12-19T10:39:48.393Z,-0.62
2022-12-19T10:42:46.908Z,-1.60
2022-12-19T10:45:17.296Z,-0.55
2022-12-19T10:47:44.255Z,-1.01
2022-12-19T10:50:23.957Z,-1.20
2022-12-19T10:52:55.377Z,-0.74
2022-12-19T10:55:45.110Z,-0.50
2022-12-19T10:58:32.240Z,-0.50
2022-12-19T11:00:59.408Z,-0.49
2022-12-19T11:03:26.841Z,-0.93
2022-12-19T11:05:57.691Z,-0.95
2022-12-19T11:08:28.340Z,-1.41
2022-12-19T11:13:10.297Z,-0.34
2022-12-19T11:19:50.052Z,-0.58
2022-12-19T11:24:10.015Z,-0.49
2022-12-19T11:29:18.620Z,-0.27
2022-12-19T11:29:34.918Z,-0.48
2022-12-19T11:30:36.478Z,-0.64
2022-12-19T11:30:42.811Z,-0.47
2022-12-19T11:34:17.820Z,-0.15
2022-12-19T11:37:21.948Z,-0.23
2022-12-19T11:40:11.033Z,-0.20
2022-12-19T11:43:04.410Z,-0.39
2022-12-19T11:45:48.841Z,-0.11
2022-12-19T11:48:46.238Z,-0.41
2022-12-19T11:51:28.377Z,-0.80
2022-12-19T11:54:30.754Z,-0.12
2022-12-19T11:56:58.416Z,-1.18
2022-12-19T11:59:34.980Z,-1.25
2022-12-19T12:02:33.281Z,-0.24
2022-12-19T12:05:18.408Z,-0.16
2022-12-19T12:09:50.123Z,0.04
2022-12-19T12:17:21.258Z,-0.03
2022-12-19T12:24:06.388Z,0.14
2022-12-19T12:31:21.496Z,0.14
2022-12-19T12:31:30.964Z,0.16
2022-12-19T12:31:54.262Z,0.26
2022-12-19T12:31:56.046Z,0.24
2022-12-19T12:32:04.830Z,0.26
2022-12-19T12:35:31.819Z,0.29
2022-12-19T12:39:02.171Z,0.36
2022-12-19T12:42:05.330Z,0.06
2022-12-19T12:44:44.866Z,0.30
2022-12-19T12:47:15.559Z,0.42
2022-12-19T12:49:46.561Z,0.11
2022-12-19T12:52:22.204Z,0.28
2022-12-19T12:54:50.924Z,0.26
2022-12-19T12:57:36.076Z,-0.51
2022-12-19T13:00:20.033Z,0.48
2022-12-19T13:02:55.671Z,-0.24
2022-12-19T13:05:52.909Z,0.43
2022-12-19T13:08:36.562Z,0.30
2022-12-19T13:11:38.464Z,0.34
2022-12-19T13:14:26.693Z,-0.27
2022-12-19T13:16:54.193Z,-0.48
2022-12-19T13:19:28.791Z,0.47
2022-12-19T13:22:05.200Z,0.43
2022-12-19T13:24:39.472Z,0.47
2022-12-19T13:27:21.619Z,0.57
2022-12-19T13:30:00.629Z,0.52
2022-12-19T13:32:53.787Z,0.66
2022-12-19T13:36:38.085Z,0.46
2022-12-19T13:39:48.862Z,1.06
2022-12-19T13:41:58.484Z,1.17
2022-12-19T13:44:26.513Z,1.25
2022-12-19T13:46:56.189Z,1.09
2022-12-19T13:49:34.282Z,0.97
2022-12-19T13:52:02.988Z,1.06
2022-12-19T13:54:46.069Z,1.32
2022-12-19T13:57:31.074Z,1.34
2022-12-19T14:00:02.199Z,1.06
2022-12-19T14:02:44.804Z,0.88
2022-12-19T14:06:16.512Z,0.98
2022-12-19T14:08:29.024Z,1.43
2022-12-19T14:11:44.172Z,1.21
2022-12-19T14:14:15.084Z,1.41
2022-12-19T14:16:46.095Z,1.52
2022-12-19T14:19:24.995Z,1.08
2022-12-19T14:22:05.621Z,1.83
2022-12-19T14:24:40.024Z,1.58
2022-12-19T14:28:23.443Z,1.60
2022-12-19T14:30:29.691Z,1.64
2022-12-19T14:33:45.774Z,1.52
2022-12-19T14:36:10.169Z,1.15
2022-12-19T14:39:22.942Z,1.06
2022-12-19T14:42:07.046Z,1.10
2022-12-19T14:52:08.552Z,1.33
2022-12-19T14:53:34.399Z,1.83
2022-12-19T14:54:24.146Z,1.41
2022-12-19T14:54:40.654Z,1.16
2022-12-19T14:59:05.585Z,1.76
2022-12-19T15:01:36.478Z,0.01
2022-12-19T15:04:50.971Z,0.58
2022-12-19T15:07:23.976Z,0.52
2022-12-19T15:11:04.631Z,0.93
2022-12-19T15:14:49.065Z,0.48
2022-12-19T15:16:31.785Z,-0.38
2022-12-19T15:19:01.597Z,0.23
2022-12-19T15:21:30.112Z,-0.06
2022-12-19T15:23:57.104Z,0.06
2022-12-19T15:26:30.719Z,-0.19
2022-12-19T15:28:58.306Z,-0.55
2022-12-19T15:31:43.981Z,-0.29
2022-12-19T15:36:58.431Z,0.12
2022-12-19T15:39:26.879Z,0.01
2022-12-19T15:41:55.444Z,-0.44
2022-12-19T15:44:38.629Z,0.27
2022-12-19T15:47:15.185Z,-0.97
2022-12-19T15:49:42.122Z,-0.82
2022-12-19T15:52:19.910Z,0.21
2022-12-19T15:54:48.751Z,-0.20
2022-12-19T15:57:36.411Z,-0.43
2022-12-19T16:00:08.997Z,-0.51
2022-12-19T16:05:26.401Z,-1.18
2022-12-19T16:07:53.394Z,-0.46
2022-12-19T16:10:20.264Z,-0.80
2022-12-19T16:12:53.087Z,-0.03
2022-12-19T16:15:24.276Z,-0.74
2022-12-19T16:17:51.233Z,-1.09
2022-12-19T16:20:24.660Z,-0.51
2022-12-19T16:22:51.668Z,-0.76
2022-12-19T16:25:19.037Z,-0.78
2022-12-19T16:27:54.351Z,-0.85
2022-12-19T16:30:30.423Z,-0.39
2022-12-19T16:32:57.643Z,-0.25
2022-12-19T16:35:54.889Z,-0.06
2022-12-19T16:38:13.748Z,-0.37
2022-12-19T16:40:40.939Z,-0.70
2022-12-19T16:43:26.225Z,-0.31
2022-12-19T16:45:56.854Z,-0.55
2022-12-19T16:48:30.267Z,-0.16
2022-12-19T16:50:59.017Z,-1.08
2022-12-19T16:53:26.107Z,-0.74
2022-12-19T16:55:55.281Z,-0.80
2022-12-19T16:58:27.526Z,-0.11
2022-12-19T17:00:55.909Z,-0.66
2022-12-19T17:03:28.547Z,-0.12
2022-12-19T17:05:56.229Z,-1.14
2022-12-19T17:08:23.397Z,-0.48
2022-12-19T17:10:50.705Z,-0.76
2022-12-19T17:13:18.433Z,-1.80
2022-12-19T17:15:49.715Z,-0.34
2022-12-19T17:18:27.872Z,-0.24
2022-12-19T17:20:54.828Z,-1.13
2022-12-19T17:23:24.043Z,-0.57
2022-12-19T17:25:51.457Z,-0.94
2022-12-19T17:28:18.528Z,-0.17
2022-12-19T17:30:57.626Z,-0.28
2022-12-19T17:33:33.518Z,-0.26
2022-12-19T17:36:02.078Z,-1.02
2022-12-19T17:38:29.245Z,-1.21
2022-12-19T17:40:56.465Z,-1.50
2022-12-19T17:43:23.455Z,-0.45
2022-12-19T17:45:51.330Z,-0.27
2022-12-19T17:48:33.671Z,-0.33
2022-12-19T17:51:00.827Z,-0.36
2022-12-19T17:53:27.794Z,-1.03
2022-12-19T17:55:56.814Z,-1.38
2022-12-19T17:58:23.668Z,-0.50
2022-12-19T18:00:51.731Z,-0.41
2022-12-19T18:03:23.326Z,-1.22
2022-12-19T18:05:52.869Z,-0.23
2022-12-19T18:08:29.359Z,-0.48
2022-12-19T18:10:58.004Z,-0.42
2022-12-19T18:13:26.719Z,-0.18
2022-12-19T18:15:57.710Z,-1.13
2022-12-19T18:18:31.263Z,-0.35
2022-12-19T18:21:00.513Z,-0.47
2022-12-19T18:23:28.325Z,-0.20
2022-12-19T18:26:01.255Z,-1.26
2022-12-19T18:28:29.276Z,-0.55
2022-12-19T18:31:03.341Z,-1.58
2022-12-19T18:33:38.538Z,-0.38
2022-12-19T18:36:07.680Z,-1.14
2022-12-19T18:38:34.965Z,-0.83
2022-12-19T18:41:02.233Z,-0.83
2022-12-19T18:43:31.300Z,-0.53
2022-12-19T18:45:58.753Z,-0.76
2022-12-19T18:48:26.628Z,-0.23
2022-12-19T18:50:56.434Z,-0.62
2022-12-19T18:53:28.555Z,-1.20
2022-12-19T18:56:04.270Z,-0.46
2022-12-19T18:58:31.751Z,-1.20
2022-12-19T19:01:00.801Z,-1.44
2022-12-19T19:03:35.145Z,-0.37
2022-12-19T19:06:04.155Z,-0.65
2022-12-19T19:08:33.395Z,-0.46
2022-12-19T19:11:01.400Z,-0.87
2022-12-19T19:13:28.989Z,-1.18
2022-12-19T19:16:02.026Z,-1.20
2022-12-19T19:18:38.259Z,-1.20
2022-12-19T19:21:07.621Z,-0.42
2022-12-19T19:23:47.305Z,-0.66
2022-12-19T19:26:14.566Z,-1.11
2022-12-19T19:28:41.993Z,-1.19
2022-12-19T19:31:16.390Z,-0.72
2022-12-19T19:34:00.787Z,-0.71
2022-12-19T19:36:31.633Z,-0.56
2022-12-19T19:38:59.753Z,-0.28
2022-12-19T19:41:30.073Z,-0.84
2022-12-19T19:43:57.992Z,-0.50
2022-12-19T19:46:25.225Z,-0.82
2022-12-19T19:48:52.383Z,-1.79
2022-12-19T19:51:19.471Z,-0.68
2022-12-19T19:53:47.148Z,-0.70
2022-12-19T19:56:14.161Z,-0.84
2022-12-19T19:58:41.389Z,-0.40
2022-12-19T20:01:13.696Z,-0.43
2022-12-19T20:03:45.434Z,-0.95
2022-12-19T20:06:12.993Z,-0.56
2022-12-19T20:08:40.960Z,-1.94
2022-12-19T20:11:09.993Z,-0.39
2022-12-19T20:13:38.153Z,-1.96
2022-12-19T20:16:10.677Z,-1.17
2022-12-19T20:18:39.315Z,-0.70
2022-12-19T20:21:13.098Z,-1.08
2022-12-19T20:23:42.225Z,-0.28
2022-12-19T20:26:09.895Z,-1.72
2022-12-19T20:28:42.285Z,-1.33
2022-12-19T20:31:14.745Z,-1.02
2022-12-19T20:33:41.991Z,-1.63
2022-12-19T20:36:11.468Z,-1.63
2022-12-19T20:38:39.288Z,-1.23
2022-12-19T20:41:07.187Z,-0.55
2022-12-19T20:43:34.471Z,-1.03
2022-12-19T20:46:17.484Z,-0.56
2022-12-19T20:48:45.285Z,-0.63
2022-12-19T20:51:13.588Z,-0.88
2022-12-19T20:53:41.782Z,-1.02
2022-12-19T20:56:12.428Z,-0.59
2022-12-19T20:58:40.105Z,-0.66
2022-12-19T21:01:13.354Z,-0.24
2022-12-19T21:03:41.374Z,-1.07
2022-12-19T21:06:10.706Z,-1.05
2022-12-19T21:08:39.081Z,-1.13
2022-12-19T21:11:08.013Z,-0.07
2022-12-19T21:13:36.401Z,0.04
2022-12-19T21:16:09.071Z,-0.83
2022-12-19T21:18:38.705Z,-0.96
2022-12-19T21:21:07.161Z,-0.25
2022-12-19T21:23:35.109Z,-0.57
2022-12-19T21:26:04.509Z,0.02
2022-12-19T21:28:32.245Z,-0.09
2022-12-19T21:31:20.273Z,-0.93
2022-12-19T21:33:48.968Z,-0.69
2022-12-19T21:36:20.510Z,-0.29
2022-12-19T21:38:49.230Z,0.15
2022-12-19T21:41:19.443Z,-0.59
2022-12-19T21:43:53.694Z,-0.59
2022-12-19T21:46:33.442Z,-0.10
2022-12-19T21:49:01.243Z,-0.54
2022-12-19T21:51:31.537Z,-0.63
2022-12-19T21:54:01.125Z,-1.43
2022-12-19T21:56:34.497Z,-0.10
2022-12-19T21:59:07.403Z,-0.79
2022-12-19T22:01:35.277Z,-1.13
2022-12-19T22:04:06.791Z,-0.12
2022-12-19T22:06:37.817Z,-0.41
2022-12-19T22:09:16.443Z,0.04
2022-12-19T22:11:44.086Z,-1.05
2022-12-19T22:14:14.537Z,0.28
2022-12-19T22:16:42.383Z,0.16
2022-12-19T22:19:12.496Z,-0.62
2022-12-19T22:21:39.615Z,-0.52
2022-12-19T22:24:07.042Z,-0.82
2022-12-19T22:26:35.308Z,-0.26
2022-12-19T22:29:15.097Z,0.34
2022-12-19T22:31:43.304Z,-0.52
2022-12-19T22:34:13.396Z,-0.47
2022-12-19T22:36:42.122Z,0.30
2022-12-19T22:39:12.085Z,-0.16
2022-12-19T22:41:40.358Z,-0.16
2022-12-19T22:44:15.234Z,0.32
2022-12-19T22:46:42.855Z,-0.56
2022-12-19T22:49:11.843Z,0.64
2022-12-19T22:51:43.931Z,-0.86
2022-12-19T22:54:12.199Z,-0.64
2022-12-19T22:56:40.202Z,-0.07
2022-12-19T22:59:17.569Z,-0.97
2022-12-19T23:01:44.911Z,0.74
2022-12-19T23:04:15.744Z,0.78
2022-12-19T23:06:43.711Z,0.50
2022-12-19T23:09:16.231Z,0.27
2022-12-19T23:11:46.577Z,0.30
2022-12-19T23:14:16.347Z,-0.71
2022-12-19T23:16:44.593Z,0.31
2022-12-19T23:19:12.441Z,-0.76
2022-12-19T23:21:39.583Z,0.52
2022-12-19T23:26:51.413Z,-0.15
2022-12-19T23:29:18.523Z,-0.94
2022-12-19T23:31:47.437Z,0.02
2022-12-19T23:34:15.836Z,1.01
2022-12-19T23:37:10.409Z,0.86
2022-12-19T23:39:30.217Z,0.78
2022-12-19T23:41:57.260Z,0.11
2022-12-19T23:44:24.417Z,0.08
2022-12-19T23:46:51.492Z,-0.26
2022-12-19T23:49:18.443Z,0.64
2022-12-19T23:51:46.046Z,-0.49
2022-12-19T23:54:13.325Z,0.53
2022-12-19T23:56:43.114Z,0.91
2022-12-19T23:59:10.562Z,0.62
